Time;durP1;ratioP1;P1;durP2;ratioP2;P2;SDS_P1;SDS_P2;PMS_P1;PMS_P2;Temp;Humidity;BMP_temperature;BMP_pressure;BME280_temperature;BME280_humidity;BME280_pressure;Samples;Min_cycle;Max_cycle;Signal;HPM_P1;HPM_P2
2020/12/07 00:00:25;;;;;;;;;;;;;;;;;;;;;
2020/12/07 00:03:14;;;;;;;27.07;18.70;;;6.30;99.90;;;;;;4988235;28;20458;-81
2020/12/07 00:06:11;;;;;;;29.60;17.83;;;6.10;99.90;;;;;;4990691;28;20448;-81
2020/12/07 00:09:16;;;;;;;28.90;19.13;;;6.20;99.90;;;;;;4986588;28;20494;-81
2020/12/07 00:12:48;;;;;;;;;;;;;;;;;;;;;
2020/12/07 00:29:56;;;;;;;21.50;15.50;;;6.10;99.90;;;;;;5079315;23;21141;-80
2020/12/07 00:32:23;;;;;;;21.40;16.30;;;6.10;99.90;;;;;;4972539;28;21878;-82
2020/12/07 00:34:50;;;;;;;19.90;15.50;;;6.10;99.90;;;;;;4971786;28;20488;-81
2020/12/07 00:37:16;;;;;;;19.53;14.20;;;6.20;99.90;;;;;;4972396;28;20451;-81
2020/12/07 00:39:43;;;;;;;18.00;13.70;;;6.20;99.90;;;;;;4976883;28;20478;-81
2020/12/07 00:42:11;;;;;;;14.37;12.00;;;6.10;99.90;;;;;;4976497;28;20544;-80
2020/12/07 00:44:38;;;;;;;17.67;13.43;;;6.10;99.90;;;;;;4978867;28;20451;-82
2020/12/07 00:47:06;;;;;;;15.63;12.53;;;6.10;99.90;;;;;;4979188;28;20493;-80
2020/12/07 00:49:34;;;;;;;18.03;13.13;;;6.10;99.90;;;;;;4977730;28;21159;-78
2020/12/07 00:52:01;;;;;;;19.80;14.07;;;6.20;99.90;;;;;;4976977;28;20466;-80
2020/12/07 00:54:28;;;;;;;18.30;13.80;;;6.20;99.90;;;;;;4976339;28;20873;-80
2020/12/07 00:56:57;;;;;;;14.17;12.43;;;6.30;99.90;;;;;;4976716;28;20494;-79
2020/12/07 00:59:25;;;;;;;17.17;12.90;;;6.20;99.90;;;;;;4980493;28;20517;-81
2020/12/07 01:01:53;;;;;;;16.50;13.07;;;6.20;99.90;;;;;;4979218;28;20463;-81
2020/12/07 01:04:20;;;;;;;17.30;12.40;;;6.20;99.90;;;;;;4981991;28;20480;-81
2020/12/07 01:06:47;;;;;;;19.50;13.90;;;6.20;99.90;;;;;;4978915;28;22537;-81
2020/12/07 01:09:19;;;;;;;15.27;12.73;;;6.20;99.90;;;;;;4979035;28;20999;-79
2020/12/07 01:11:51;;;;;;;15.60;13.57;;;6.20;99.90;;;;;;4983289;28;20491;-79
2020/12/07 01:14:18;;;;;;;17.50;14.50;;;6.20;99.90;;;;;;4984420;28;20562;-80
2020/12/07 01:16:45;;;;;;;17.03;12.87;;;6.20;99.90;;;;;;4983944;28;20455;-78
2020/12/07 01:19:11;;;;;;;18.07;13.70;;;6.20;99.90;;;;;;4983650;28;21213;-79
2020/12/07 01:21:38;;;;;;;16.70;13.80;;;6.20;99.90;;;;;;4985748;28;20456;-79
2020/12/07 01:24:06;;;;;;;16.57;13.57;;;6.20;99.90;;;;;;4981052;28;20851;-81
2020/12/07 01:26:34;;;;;;;17.40;14.33;;;6.20;99.90;;;;;;4981263;28;20707;-79
2020/12/07 01:29:02;;;;;;;17.10;13.67;;;6.20;99.90;;;;;;4978858;28;20580;-80
2020/12/07 01:31:29;;;;;;;19.80;15.23;;;6.20;99.90;;;;;;4979672;28;20464;-80
2020/12/07 01:33:56;;;;;;;17.93;16.03;;;6.20;99.90;;;;;;4978578;28;20510;-79
2020/12/07 01:36:23;;;;;;;19.80;15.70;;;6.20;99.90;;;;;;4976858;28;20487;-80
2020/12/07 01:38:49;;;;;;;17.80;14.27;;;6.20;99.90;;;;;;4984918;28;20482;-77
2020/12/07 01:41:16;;;;;;;19.20;14.70;;;6.10;99.90;;;;;;4984275;28;20506;-79
2020/12/07 01:43:44;;;;;;;19.87;15.63;;;6.20;99.90;;;;;;4980959;28;20490;-80
2020/12/07 01:46:18;;;;;;;19.30;15.67;;;6.20;99.90;;;;;;4983948;28;20927;-79
2020/12/07 01:48:47;;;;;;;19.10;15.27;;;6.20;99.90;;;;;;4995175;28;20506;-79
2020/12/07 01:51:15;;;;;;;20.20;15.30;;;6.20;99.90;;;;;;4982275;28;20471;-82
2020/12/07 01:53:45;;;;;;;17.70;14.93;;;6.20;99.90;;;;;;4983032;28;20502;-80
2020/12/07 01:56:42;;;;;;;20.67;16.20;;;6.20;99.90;;;;;;4983867;28;20490;-82
2020/12/07 01:59:08;;;;;;;20.73;14.90;;;6.20;99.90;;;;;;4973558;28;20468;-78
2020/12/07 02:01:36;;;;;;;19.43;15.57;;;6.20;99.90;;;;;;4985671;28;20463;-79
2020/12/07 02:04:03;;;;;;;18.90;15.17;;;6.20;99.90;;;;;;4985772;28;20480;-78
2020/12/07 02:06:29;;;;;;;21.50;16.27;;;6.20;99.90;;;;;;4984807;28;20462;-79
2020/12/07 02:08:56;;;;;;;19.10;14.37;;;6.20;99.90;;;;;;4986264;28;20482;-80
2020/12/07 02:11:25;;;;;;;19.70;14.90;;;6.10;99.90;;;;;;4990019;28;20459;-80
2020/12/07 02:13:52;;;;;;;20.23;15.10;;;6.10;99.90;;;;;;4980042;28;20506;-81
2020/12/07 02:16:19;;;;;;;20.63;15.03;;;6.10;99.90;;;;;;4978982;28;20487;-80
2020/12/07 02:18:46;;;;;;;20.17;15.50;;;6.10;99.90;;;;;;4978575;28;20883;-78
2020/12/07 02:21:16;;;;;;;18.60;14.70;;;6.10;99.90;;;;;;4997366;28;20520;-80
2020/12/07 02:23:42;;;;;;;18.23;13.70;;;6.10;99.90;;;;;;4982410;28;20456;-79
2020/12/07 02:26:10;;;;;;;20.33;15.40;;;6.10;99.90;;;;;;4981478;28;20463;-80
2020/12/07 02:28:37;;;;;;;20.60;15.17;;;6.10;99.90;;;;;;4979426;28;20554;-79
2020/12/07 02:31:04;;;;;;;17.57;14.07;;;6.10;99.90;;;;;;4980323;28;20463;-81
2020/12/07 02:33:31;;;;;;;19.93;15.53;;;6.10;99.90;;;;;;4979928;28;20463;-80
2020/12/07 02:35:58;;;;;;;19.50;13.77;;;6.10;99.90;;;;;;4981076;28;20487;-81
2020/12/07 02:38:24;;;;;;;22.30;14.87;;;6.20;99.90;;;;;;4979869;28;20471;-81
2020/12/07 02:40:51;;;;;;;19.33;14.80;;;6.10;99.90;;;;;;4979771;28;20483;-80
2020/12/07 02:43:18;;;;;;;20.10;16.03;;;6.10;99.90;;;;;;4978630;28;21106;-79
2020/12/07 02:45:45;;;;;;;22.20;15.97;;;6.00;99.90;;;;;;4980395;28;20549;-79
2020/12/07 02:48:12;;;;;;;25.63;18.40;;;6.00;99.90;;;;;;4973985;28;21056;-78
2020/12/07 02:50:39;;;;;;;25.63;18.33;;;6.00;99.90;;;;;;4978204;28;20475;-81
2020/12/07 02:53:06;;;;;;;24.90;18.77;;;6.00;99.90;;;;;;4977221;28;20590;-82
2020/12/07 02:55:32;;;;;;;26.27;19.80;;;6.00;99.90;;;;;;4979875;28;20515;-77
2020/12/07 02:57:58;;;;;;;22.63;18.17;;;6.00;99.90;;;;;;4981395;28;20463;-82
2020/12/07 03:00:25;;;;;;;23.00;16.53;;;6.00;99.90;;;;;;4980891;28;20816;-81
2020/12/07 03:02:51;;;;;;;24.70;17.60;;;6.00;99.90;;;;;;4988394;28;20452;-79
2020/12/07 03:05:18;;;;;;;24.23;17.70;;;6.00;99.90;;;;;;4983138;28;20516;-80
2020/12/07 03:07:45;;;;;;;23.63;17.17;;;6.00;99.90;;;;;;4981201;28;20490;-78
2020/12/07 03:10:11;;;;;;;22.17;15.97;;;6.00;99.90;;;;;;4983430;28;20473;-79
2020/12/07 03:12:38;;;;;;;25.47;17.73;;;5.90;99.90;;;;;;4979451;28;20757;-78
2020/12/07 03:15:04;;;;;;;23.90;17.23;;;5.90;99.90;;;;;;4981337;28;21043;-78
2020/12/07 03:17:31;;;;;;;25.77;16.57;;;5.90;99.90;;;;;;4979269;28;20459;-81
2020/12/07 03:19:58;;;;;;;22.57;15.77;;;5.90;99.90;;;;;;4976365;28;20574;-81
2020/12/07 03:22:25;;;;;;;19.57;15.03;;;5.90;99.90;;;;;;4981340;28;20452;-80
2020/12/07 03:24:52;;;;;;;23.10;15.00;;;5.90;99.90;;;;;;4981937;28;20464;-80
2020/12/07 03:27:19;;;;;;;20.73;15.80;;;6.00;99.90;;;;;;4979050;28;20459;-81
2020/12/07 03:29:46;;;;;;;22.23;15.07;;;6.00;99.90;;;;;;4978483;28;20614;-80
2020/12/07 03:32:13;;;;;;;21.80;15.70;;;6.00;99.90;;;;;;4979847;28;20460;-79
2020/12/07 03:34:39;;;;;;;23.60;16.83;;;6.00;99.90;;;;;;4982212;28;21043;-79
2020/12/07 03:37:06;;;;;;;22.00;15.83;;;6.00;99.90;;;;;;4984432;28;20451;-78
2020/12/07 03:39:33;;;;;;;23.07;17.70;;;6.00;99.90;;;;;;4981260;28;20483;-78
2020/12/07 03:41:59;;;;;;;25.60;16.37;;;6.00;99.90;;;;;;4981504;28;20494;-80
2020/12/07 03:44:26;;;;;;;25.90;17.97;;;6.00;99.90;;;;;;4979237;28;22093;-82
2020/12/07 03:46:53;;;;;;;25.73;18.10;;;6.00;99.90;;;;;;4977818;28;20483;-78
2020/12/07 03:49:20;;;;;;;27.20;18.40;;;6.00;99.90;;;;;;4981808;28;20475;-78
2020/12/07 03:51:47;;;;;;;28.47;17.70;;;6.00;99.90;;;;;;4980577;28;20455;-79
2020/12/07 03:54:14;;;;;;;24.40;17.43;;;5.90;99.90;;;;;;4977416;28;20496;-78
2020/12/07 03:56:40;;;;;;;22.40;15.93;;;6.00;99.90;;;;;;4983969;28;20488;-79
2020/12/07 03:59:07;;;;;;;23.80;15.90;;;6.00;99.90;;;;;;4984768;28;20513;-79
2020/12/07 04:01:34;;;;;;;24.63;16.50;;;6.00;99.90;;;;;;4978921;28;20471;-78
2020/12/07 04:04:05;;;;;;;19.73;14.67;;;6.00;99.90;;;;;;4973040;28;20482;-82
2020/12/07 04:06:35;;;;;;;25.30;17.63;;;6.00;99.90;;;;;;4981063;28;20458;-80
2020/12/07 04:09:01;;;;;;;24.10;18.23;;;6.00;99.90;;;;;;4978262;28;20537;-80
2020/12/07 04:11:28;;;;;;;28.10;18.00;;;6.00;99.90;;;;;;4982978;28;20455;-78
2020/12/07 04:13:55;;;;;;;23.60;17.70;;;6.10;99.90;;;;;;4983050;28;20463;-79
2020/12/07 04:16:28;;;;;;;22.77;17.10;;;6.10;99.90;;;;;;4986803;28;20532;-79
2020/12/07 04:18:55;;;;;;;26.17;18.67;;;6.00;99.90;;;;;;4986974;28;20471;-78
2020/12/07 04:21:22;;;;;;;22.93;17.30;;;6.00;99.90;;;;;;4985298;28;20451;-80
2020/12/07 04:23:49;;;;;;;21.43;16.30;;;6.00;99.90;;;;;;4976681;28;20455;-82
2020/12/07 04:26:16;;;;;;;24.83;16.87;;;6.10;99.90;;;;;;4979665;28;20451;-81
2020/12/07 04:28:43;;;;;;;25.90;17.27;;;6.10;99.90;;;;;;4978812;28;20495;-79
2020/12/07 04:31:09;;;;;;;23.97;17.73;;;6.10;99.90;;;;;;4630999;28;10000322;-78
2020/12/07 04:33:36;;;;;;;22.67;16.53;;;6.10;99.90;;;;;;4975175;28;20582;-81
2020/12/07 04:36:04;;;;;;;24.10;16.97;;;6.00;99.90;;;;;;4975574;28;21256;-82
2020/12/07 04:38:32;;;;;;;24.70;18.43;;;6.00;99.90;;;;;;4976054;28;20542;-82
2020/12/07 04:41:03;;;;;;;23.73;18.00;;;6.00;99.90;;;;;;4974440;28;20514;-81
2020/12/07 04:43:31;;;;;;;25.60;17.87;;;6.00;99.90;;;;;;4969334;28;20460;-82
2020/12/07 04:45:59;;;;;;;24.37;18.67;;;6.00;99.90;;;;;;4978392;28;20543;-79
2020/12/07 04:48:29;;;;;;;22.17;17.10;;;6.10;99.90;;;;;;4976343;28;20780;-80
2020/12/07 04:50:56;;;;;;;23.37;18.37;;;6.10;99.90;;;;;;4972532;28;20470;-79
2020/12/07 04:53:22;;;;;;;21.50;17.10;;;6.10;99.90;;;;;;4985360;28;20517;-81
2020/12/07 04:55:50;;;;;;;24.37;18.37;;;6.10;99.90;;;;;;4976177;28;20482;-80
2020/12/07 04:58:17;;;;;;;24.10;17.70;;;6.10;99.90;;;;;;4977672;28;20482;-80
2020/12/07 05:00:44;;;;;;;18.80;15.40;;;6.10;99.90;;;;;;4976334;28;20821;-80
2020/12/07 05:03:11;;;;;;;26.03;18.03;;;6.10;99.90;;;;;;4975077;28;20558;-81
2020/12/07 05:05:38;;;;;;;22.83;16.20;;;6.10;99.90;;;;;;4977071;28;20455;-81
2020/12/07 05:08:04;;;;;;;21.20;16.30;;;6.10;99.90;;;;;;4975436;28;20478;-81
2020/12/07 05:10:37;;;;;;;21.03;15.50;;;6.20;99.90;;;;;;4974739;28;20488;-81
2020/12/07 05:15:49;;;;;;;20.27;15.73;;;6.10;99.90;;;;;;4980285;28;20820;-81
2020/12/07 05:18:16;;;;;;;21.60;16.67;;;6.20;99.90;;;;;;4979907;28;20562;-81
2020/12/07 05:20:43;;;;;;;20.60;15.10;;;6.20;99.90;;;;;;4979510;28;20455;-81
2020/12/07 05:23:17;;;;;;;20.40;15.13;;;6.20;99.90;;;;;;4974069;28;20457;-82
2020/12/07 05:25:45;;;;;;;21.70;16.53;;;6.20;99.90;;;;;;4979120;28;20525;-81
2020/12/07 05:28:16;;;;;;;22.20;16.67;;;6.10;99.90;;;;;;4975066;28;20483;-80
2020/12/07 05:30:46;;;;;;;20.43;15.40;;;6.20;99.90;;;;;;4980185;28;20464;-79
2020/12/07 05:33:20;;;;;;;20.67;15.80;;;6.20;99.90;;;;;;4977155;28;20458;-81
2020/12/07 05:35:53;;;;;;;23.33;16.87;;;6.20;99.90;;;;;;4976811;28;20569;-81
2020/12/07 05:38:20;;;;;;;21.93;14.80;;;6.10;99.90;;;;;;4978294;28;21216;-81
2020/12/07 05:40:47;;;;;;;20.47;15.60;;;6.10;99.90;;;;;;4978964;28;20459;-81
2020/12/07 05:43:13;;;;;;;20.60;15.30;;;6.10;99.90;;;;;;4979757;28;20503;-80
2020/12/07 05:45:41;;;;;;;19.93;14.50;;;6.10;99.90;;;;;;4981064;28;20551;-82
2020/12/07 05:48:10;;;;;;;19.30;14.27;;;6.10;99.90;;;;;;4980145;28;20488;-81
2020/12/07 05:50:43;;;;;;;20.03;13.63;;;6.10;99.90;;;;;;4978361;28;20466;-79
2020/12/07 05:53:11;;;;;;;20.10;15.17;;;6.10;99.90;;;;;;4986940;28;20960;-81
2020/12/07 05:55:38;;;;;;;21.13;15.90;;;6.20;99.90;;;;;;4979771;28;20484;-81
2020/12/07 05:58:08;;;;;;;21.10;15.63;;;6.10;99.90;;;;;;4979104;28;21065;-82
2020/12/07 06:00:39;;;;;;;21.63;15.13;;;6.20;99.90;;;;;;4978110;28;20455;-82
2020/12/07 06:03:07;;;;;;;19.07;14.03;;;6.10;99.90;;;;;;4973288;28;20447;-80
2020/12/07 06:05:34;;;;;;;18.73;13.87;;;6.10;99.90;;;;;;4981183;28;20539;-80
2020/12/07 06:08:15;;;;;;;20.10;15.43;;;6.20;99.90;;;;;;4979032;28;20460;-81
2020/12/07 06:10:47;;;;;;;21.47;16.90;;;6.20;99.90;;;;;;4977894;28;23036;-82
2020/12/07 06:13:19;;;;;;;19.00;14.47;;;6.20;99.90;;;;;;4976488;28;20544;-80
2020/12/07 06:15:48;;;;;;;22.20;16.33;;;6.20;99.90;;;;;;4975929;28;20567;-80
2020/12/07 06:18:27;;;;;;;18.73;14.27;;;6.20;99.90;;;;;;4973983;28;20504;-80
2020/12/07 06:21:05;;;;;;;22.90;14.43;;;6.20;99.90;;;;;;4972818;28;20962;-80
2020/12/07 06:23:41;;;;;;;24.83;14.70;;;6.20;99.90;;;;;;4980867;28;20537;-79
2020/12/07 06:26:19;;;;;;;20.43;15.67;;;6.60;99.90;;;;;;4980517;28;20580;-79
2020/12/07 06:28:53;;;;;;;22.30;14.30;;;7.00;99.90;;;;;;4984357;28;20514;-79
2020/12/07 06:31:26;;;;;;;24.73;16.80;;;7.30;99.90;;;;;;4984753;28;20986;-79
2020/12/07 06:33:54;;;;;;;24.40;17.50;;;7.30;99.90;;;;;;4976718;28;20518;-80
2020/12/07 06:36:29;;;;;;;24.90;17.30;;;7.30;99.90;;;;;;4982080;28;20479;-79
2020/12/07 06:39:04;;;;;;;28.00;19.07;;;7.30;99.90;;;;;;4976335;28;20467;-80
2020/12/07 06:41:41;;;;;;;26.73;17.40;;;7.30;99.90;;;;;;4978213;28;20571;-81
2020/12/07 06:44:12;;;;;;;26.23;17.00;;;7.10;99.90;;;;;;4977605;28;20460;-78
2020/12/07 06:46:46;;;;;;;28.00;18.80;;;7.10;99.90;;;;;;4989000;28;20535;-81
2020/12/07 06:49:13;;;;;;;26.93;17.30;;;7.20;99.90;;;;;;4981015;28;20481;-82
2020/12/07 06:51:44;;;;;;;24.70;16.43;;;7.10;99.90;;;;;;4979665;28;20920;-80
2020/12/07 06:57:28;;;;;;;26.40;16.20;;;7.10;99.90;;;;;;4979333;28;20459;-80
2020/12/07 07:00:22;;;;;;;23.30;17.73;;;7.00;99.90;;;;;;4980432;28;20474;-82
2020/12/07 07:02:53;;;;;;;23.33;17.07;;;6.80;99.90;;;;;;4995258;28;20494;-80
2020/12/07 07:05:26;;;;;;;26.50;16.50;;;6.80;99.90;;;;;;4977187;28;20486;-81
2020/12/07 07:07:55;;;;;;;21.03;15.97;;;6.60;99.90;;;;;;4977322;28;20515;-80
2020/12/07 07:10:28;;;;;;;23.30;16.20;;;6.40;99.90;;;;;;4979655;28;20460;-82
2020/12/07 07:12:55;;;;;;;24.20;14.53;;;6.30;99.90;;;;;;4979427;28;20480;-81
2020/12/07 07:15:22;;;;;;;21.87;14.50;;;6.40;99.90;;;;;;4978794;28;20867;-82
2020/12/07 07:20:26;;;;;;;22.77;15.13;;;7.20;99.90;;;;;;4982983;23;20513;-79
2020/12/07 07:23:20;;;;;;;20.10;14.30;;;7.20;99.90;;;;;;4997202;28;20246;-78
2020/12/07 07:26:32;;;;;;;17.53;12.70;;;6.80;99.90;;;;;;4987706;28;21078;-81
2020/12/07 07:29:11;;;;;;;20.00;13.60;;;6.70;99.90;;;;;;5010776;28;20496;-79
2020/12/07 07:31:58;;;;;;;18.40;13.73;;;6.40;99.90;;;;;;4975628;28;20456;-81
2020/12/07 07:35:09;;;;;;;19.00;12.97;;;6.40;99.90;;;;;;4970097;28;20471;-80
2020/12/07 07:41:26;;;;;;;18.97;12.50;;;6.60;99.90;;;;;;4934113;28;20846;-80
2020/12/07 08:16:22;;;;;;;16.17;10.40;;;7.20;99.90;;;;;;4977013;28;20490;-79
2020/12/07 08:19:45;;;;;;;17.30;11.00;;;7.10;99.90;;;;;;4973565;28;20475;-80
2020/12/07 08:22:37;;;;;;;16.10;12.57;;;7.10;99.90;;;;;;4973749;28;20610;-81
2020/12/07 08:25:22;;;;;;;;;;;;;;;;;;;;;
2020/12/07 08:28:47;;;;;;;14.50;10.07;;;6.90;99.90;;;;;;4975215;28;20451;-79
2020/12/07 08:31:50;;;;;;;15.80;10.43;;;7.20;99.90;;;;;;4971932;28;20486;-79
2020/12/07 08:34:32;;;;;;;15.10;10.97;;;7.10;99.90;;;;;;4974811;28;20444;-78
2020/12/07 08:37:19;;;;;;;16.47;10.80;;;6.90;99.90;;;;;;4988885;28;20448;-78
2020/12/07 08:40:37;;;;;;;15.20;10.37;;;6.90;99.90;;;;;;4986191;28;20475;-80
2020/12/07 08:43:43;;;;;;;15.30;11.60;;;7.30;99.90;;;;;;4973346;28;20460;-78
2020/12/07 08:46:30;;;;;;;15.87;11.20;;;7.20;99.90;;;;;;4990873;28;20435;-78
2020/12/07 08:49:15;;;;;;;14.77;9.40;;;7.30;99.90;;;;;;4992406;28;20469;-81
2020/12/07 08:52:17;;;;;;;15.03;10.93;;;7.20;99.90;;;;;;4991293;28;20470;-79
2020/12/07 08:55:01;;;;;;;14.70;10.13;;;7.30;99.90;;;;;;4989229;28;20451;-79
2020/12/07 08:58:17;;;;;;;15.00;10.53;;;7.10;99.90;;;;;;4979629;28;20427;-80
2020/12/07 09:01:36;;;;;;;;;;;;;;;;;;;;;
2020/12/07 09:04:25;;;;;;;11.03;9.33;;;7.20;99.90;;;;;;4975378;28;20458;-79
2020/12/07 09:07:20;;;;;;;14.10;10.10;;;7.30;99.90;;;;;;4973577;28;20471;-79
2020/12/07 09:10:26;;;;;;;10.60;8.03;;;7.40;99.90;;;;;;4970035;28;20459;-81
2020/12/07 09:13:12;;;;;;;15.37;9.53;;;7.20;99.90;;;;;;4974991;28;20506;-81
2020/12/07 09:16:16;;;;;;;15.10;9.47;;;7.40;99.90;;;;;;4973758;28;20491;-81
2020/12/07 09:19:37;;;;;;;11.40;8.83;;;7.30;99.90;;;;;;4982226;28;20514;-81
2020/12/07 09:22:59;;;;;;;8.97;6.60;;;7.40;99.90;;;;;;4962245;28;20451;-79
2020/12/07 09:29:40;;;;;;;10.50;7.30;;;7.20;99.90;;;;;;4927599;28;20853;-81
2020/12/07 09:36:25;;;;;;;10.17;5.30;;;7.10;99.90;;;;;;4856663;29;20488;-81
2020/12/07 09:39:30;;;;;;;8.10;5.63;;;7.20;99.90;;;;;;4881195;29;21350;-82
2020/12/07 09:42:17;;;;;;;6.33;4.80;;;7.20;99.90;;;;;;4901266;29;20453;-80
2020/12/07 09:44:48;;;;;;;6.60;4.97;;;7.40;99.90;;;;;;4919287;29;20525;-81
2020/12/07 09:51:35;;;;;;;7.10;3.77;;;7.30;99.90;;;;;;4879697;29;20451;-80
2020/12/07 09:54:36;;;;;;;;;;;;;;;;;;;;;
2020/12/07 09:57:22;;;;;;;5.40;4.17;;;7.40;99.90;;;;;;4917103;29;20490;-80
2020/12/07 10:04:36;;;;;;;4.50;3.97;;;7.30;99.90;;;;;;4959782;28;20889;-78
2020/12/07 10:10:59;;;;;;;7.13;4.10;;;7.30;99.90;;;;;;5029534;23;21212;-79
2020/12/07 10:13:57;;;;;;;6.10;4.07;;;7.30;99.90;;;;;;4947124;29;20474;-81
2020/12/07 10:17:30;;;;;;;4.70;3.47;;;8.10;99.90;;;;;;4943306;29;20570;-79
2020/12/07 10:24:43;;;;;;;5.47;4.30;;;7.50;99.90;;;;;;4879673;29;20558;-81
2020/12/07 10:27:53;;;;;;;6.13;3.87;;;7.70;99.90;;;;;;4879291;29;20474;-79
2020/12/07 10:35:27;;;;;;;;;;;;;;;;;;;;;
2020/12/07 10:38:44;;;;;;;;;;;;;;;;;;;;;
2020/12/07 10:45:48;;;;;;;5.20;3.87;;;7.90;99.90;;;;;;4976338;28;20444;-81
2020/12/07 10:48:32;;;;;;;8.53;4.50;;;7.70;99.90;;;;;;4980789;28;20464;-78
2020/12/07 10:51:28;;;;;;;7.47;4.77;;;7.70;99.90;;;;;;4979395;28;20452;-81
2020/12/07 10:54:42;;;;;;;6.20;4.33;;;7.70;99.90;;;;;;4973615;28;20574;-81
2020/12/07 10:57:49;;;;;;;5.73;4.63;;;7.80;99.90;;;;;;4978374;28;20534;-79
2020/12/07 11:04:13;;;;;;;7.43;5.77;;;7.90;99.90;;;;;;4976814;28;20435;-80
2020/12/07 11:07:17;;;;;;;7.70;5.80;;;8.00;99.90;;;;;;4958120;28;20441;-79
2020/12/07 11:10:14;;;;;;;6.23;4.27;;;8.10;99.90;;;;;;4954581;28;20472;-80
2020/12/07 11:13:37;;;;;;;7.13;5.80;;;7.80;99.90;;;;;;4939030;28;20471;-80
2020/12/07 11:20:03;;;;;;;9.10;6.40;;;7.90;99.90;;;;;;4935065;28;20521;-81
2020/12/07 11:22:51;;;;;;;9.83;6.00;;;8.00;99.90;;;;;;4949613;28;20467;-81
2020/12/07 11:25:44;;;;;;;8.90;5.70;;;8.10;99.90;;;;;;4951003;28;20568;-82
2020/12/07 11:52:11;;;;;;;7.07;6.00;;;8.10;99.90;;;;;;4857967;29;20440;-79
2020/12/07 11:55:18;;;;;;;7.40;6.13;;;8.20;99.90;;;;;;4865781;29;20562;-80
2020/12/07 12:04:22;;;;;;;11.00;7.00;;;8.20;99.90;;;;;;4986992;28;20612;-78
2020/12/07 12:07:35;;;;;;;7.03;6.30;;;8.00;99.90;;;;;;4994642;28;20435;-81
2020/12/07 12:10:20;;;;;;;9.07;5.70;;;8.00;99.90;;;;;;4990547;28;20485;-82
2020/12/07 12:13:53;;;;;;;8.83;6.73;;;8.20;99.90;;;;;;4986154;28;20446;-80
2020/12/07 12:16:39;;;;;;;9.43;5.90;;;8.10;99.90;;;;;;4984347;28;20830;-81
2020/12/07 12:19:55;;;;;;;8.73;6.97;;;8.20;99.90;;;;;;4898572;29;20509;-79
2020/12/07 12:22:51;;;;;;;8.83;6.67;;;8.10;99.90;;;;;;4894637;29;20469;-80
2020/12/07 12:25:47;;;;;;;8.23;6.57;;;8.20;99.90;;;;;;4900210;29;20545;-79
2020/12/07 12:28:19;;;;;;;7.33;5.97;;;8.00;99.90;;;;;;4912108;29;21032;-79
2020/12/07 12:31:25;;;;;;;6.60;5.50;;;8.00;99.90;;;;;;4900716;29;20904;-81
2020/12/07 12:34:20;;;;;;;6.60;5.53;;;8.20;99.90;;;;;;4902859;29;20478;-80
2020/12/07 12:37:15;;;;;;;7.60;5.67;;;8.30;99.90;;;;;;4949042;28;20769;-80
2020/12/07 12:40:05;;;;;;;8.60;7.63;;;8.30;99.90;;;;;;5006882;28;20467;-80
2020/12/07 12:43:05;;;;;;;6.73;5.97;;;8.20;99.90;;;;;;4940721;28;20427;-80
2020/12/07 12:46:03;;;;;;;10.90;7.50;;;8.50;99.90;;;;;;4937914;28;21694;-80
2020/12/07 12:49:19;;;;;;;8.33;5.83;;;8.40;99.90;;;;;;4935127;28;20459;-82
2020/12/07 12:52:21;;;;;;;11.30;6.20;;;8.30;99.90;;;;;;4900824;29;20529;-80
2020/12/07 12:55:19;;;;;;;;;;;;;;;;;;;;;
2020/12/07 12:58:11;;;;;;;9.60;6.70;;;8.10;99.90;;;;;;4838801;29;20445;-78
2020/12/07 13:04:14;;;;;;;9.23;6.30;;;8.10;99.90;;;;;;4783800;29;20866;-78
2020/12/07 13:07:19;;;;;;;11.73;6.93;;;8.30;99.90;;;;;;4841071;29;20466;-80
2020/12/07 13:09:46;;;;;;;9.10;6.63;;;8.40;99.90;;;;;;4837801;29;20486;-81
2020/12/07 13:12:39;;;;;;;8.20;6.30;;;8.40;99.90;;;;;;4829508;29;20571;-81
2020/12/07 13:42:14;;;;;;;;;;;;;;;;;;;;;
2020/12/07 13:45:41;;;;;;;9.20;7.30;;;8.40;99.90;;;;;;5013342;28;20490;-80
2020/12/07 13:53:55;;;;;;;10.13;6.80;;;8.10;99.90;;;;;;3245670;23;20529;-78
2020/12/07 13:56:57;;;;;;;7.87;6.10;;;8.00;99.90;;;;;;4984571;28;20512;-78
2020/12/07 14:04:03;;;;;;;8.17;6.23;;;8.20;99.90;;;;;;4942615;28;20431;-78
2020/12/07 14:06:32;;;;;;;9.60;7.37;;;8.20;99.90;;;;;;4993791;28;20451;-79
2020/12/07 14:09:40;;;;;;;8.73;7.27;;;8.20;99.90;;;;;;4986990;28;20456;-78
2020/12/07 14:12:34;;;;;;;10.13;6.87;;;8.20;99.90;;;;;;4982778;28;20494;-78
2020/12/07 14:15:23;;;;;;;9.10;6.93;;;8.40;99.90;;;;;;4981821;28;20448;-82
2020/12/07 14:18:10;;;;;;;10.23;6.93;;;8.50;99.90;;;;;;4917803;29;20438;-80
2020/12/07 14:21:14;;;;;;;10.20;7.93;;;8.40;99.90;;;;;;4907629;29;20539;-78
2020/12/07 14:41:33;;;;;;;9.20;7.33;;;8.40;99.90;;;;;;4936779;28;20520;-77
2020/12/07 14:44:50;;;;;;;7.80;7.00;;;7.90;99.90;;;;;;4915813;29;20446;-79
2020/12/07 14:47:43;;;;;;;8.57;7.10;;;8.00;99.90;;;;;;4913471;29;21029;-79
2020/12/07 14:50:52;;;;;;;7.73;6.00;;;8.10;99.90;;;;;;4949950;28;20973;-80
2020/12/07 14:53:48;;;;;;;11.07;7.00;;;7.80;99.90;;;;;;4903872;29;20462;-78
2020/12/07 15:14:04;;;;;;;;;;;;;;;;;;;;;
2020/12/07 15:17:25;;;;;;;12.37;6.20;;;8.00;99.90;;;;;;4936300;29;20481;-78
2020/12/07 15:20:25;;;;;;;7.40;5.20;;;8.10;99.90;;;;;;4982431;23;20499;-80
2020/12/07 15:27:00;;;;;;;5.60;4.77;;;8.20;99.90;;;;;;4978580;28;20494;-79
2020/12/07 15:30:10;;;;;;;5.90;4.63;;;8.00;99.90;;;;;;5174758;23;21772;-80
2020/12/07 15:33:51;;;;;;;5.77;4.60;;;7.90;99.90;;;;;;4971402;28;20487;-79
2020/12/07 15:36:37;;;;;;;5.97;5.20;;;8.00;99.90;;;;;;4950977;28;20480;-81
2020/12/07 15:39:46;;;;;;;7.43;5.07;;;7.90;99.90;;;;;;4953542;28;20488;-78
2020/12/07 15:43:07;;;;;;;5.87;4.87;;;7.80;99.90;;;;;;4916800;29;20491;-81
2020/12/07 15:46:12;;;;;;;6.50;4.70;;;7.90;99.90;;;;;;4908083;29;20482;-80
2020/12/07 15:49:00;;;;;;;6.30;4.40;;;7.70;99.90;;;;;;4924120;29;20596;-81
2020/12/07 15:51:44;;;;;;;5.30;4.60;;;7.70;99.90;;;;;;4929624;29;20486;-80
2020/12/07 15:54:45;;;;;;;4.43;3.77;;;7.80;99.90;;;;;;4924029;29;20454;-79
2020/12/07 15:57:51;;;;;;;5.83;3.90;;;7.80;99.90;;;;;;4923676;29;20490;-79
2020/12/07 16:00:44;;;;;;;6.60;5.00;;;7.80;99.90;;;;;;4909341;29;20538;-79
2020/12/07 16:03:35;;;;;;;6.50;4.83;;;7.70;99.90;;;;;;4928808;29;20465;-80
2020/12/07 16:06:22;;;;;;;7.80;5.70;;;7.70;99.90;;;;;;4925232;28;20432;-79
2020/12/07 16:09:20;;;;;;;6.23;4.47;;;7.60;99.90;;;;;;4978404;28;20480;-78
2020/12/07 16:12:03;;;;;;;7.37;5.20;;;7.60;99.90;;;;;;4965862;28;20487;-79
2020/12/07 16:14:57;;;;;;;5.37;4.70;;;7.50;99.90;;;;;;4980723;28;20459;-78
2020/12/07 16:17:50;;;;;;;7.43;5.10;;;7.60;99.90;;;;;;4963779;28;20526;-81
2020/12/07 16:20:47;;;;;;;5.53;5.03;;;7.40;99.90;;;;;;4978358;28;21433;-82
2020/12/07 16:26:33;;;;;;;7.93;4.93;;;7.40;99.90;;;;;;4959893;28;20485;-82
2020/12/07 16:29:24;;;;;;;;;;;;;;;;;;;;;
2020/12/07 16:32:08;;;;;;;7.77;5.10;;;7.50;99.90;;;;;;4958913;28;20484;-81
2020/12/07 16:35:04;;;;;;;8.70;5.27;;;7.40;99.90;;;;;;4973683;28;20451;-80
2020/12/07 16:37:51;;;;;;;6.50;4.67;;;7.10;99.90;;;;;;4978284;28;20592;-80
2020/12/07 16:40:51;;;;;;;5.20;4.40;;;7.20;99.90;;;;;;4977090;28;20467;-80
2020/12/07 16:43:38;;;;;;;6.87;4.93;;;7.30;99.90;;;;;;4964463;28;20452;-79
2020/12/07 16:46:27;;;;;;;8.30;5.40;;;7.40;99.90;;;;;;4971951;28;20512;-79
2020/12/07 16:49:37;;;;;;;6.50;5.47;;;7.50;99.90;;;;;;4966070;28;20567;-81
2020/12/07 16:55:28;;;;;;;8.90;5.37;;;7.60;99.90;;;;;;4948758;28;20452;-79
2020/12/07 16:58:29;;;;;;;6.93;5.17;;;7.50;99.90;;;;;;4947457;28;20452;-79
2020/12/07 17:01:51;;;;;;;5.97;4.50;;;7.40;99.90;;;;;;4979613;28;20423;-81
2020/12/07 17:04:49;;;;;;;5.00;3.80;;;7.40;99.90;;;;;;4968598;28;20444;-79
2020/12/07 17:07:55;;;;;;;5.23;4.53;;;7.30;99.90;;;;;;4966603;28;20580;-79
2020/12/07 17:20:51;;;;;;;6.73;5.03;;;7.50;99.90;;;;;;4647031;28;10002333;-81
2020/12/07 17:23:57;;;;;;;7.53;5.57;;;7.60;99.90;;;;;;4991000;28;20218;-80
2020/12/07 17:27:32;;;;;;;4.90;4.00;;;7.50;99.90;;;;;;5003852;28;20473;-79
2020/12/07 17:30:19;;;;;;;5.33;4.60;;;7.40;99.90;;;;;;4939890;29;20554;-79
2020/12/07 17:33:35;;;;;;;5.10;3.47;;;7.40;99.90;;;;;;4943116;29;20434;-81
2020/12/07 17:36:52;;;;;;;7.10;5.20;;;7.40;99.90;;;;;;4913411;28;20488;-79
2020/12/07 17:39:44;;;;;;;5.67;4.63;;;7.10;99.90;;;;;;4905380;29;20482;-79
2020/12/07 17:42:25;;;;;;;6.50;5.10;;;7.80;99.90;;;;;;4932266;28;20485;-80
2020/12/07 17:45:06;;;;;;;5.90;4.30;;;7.50;99.90;;;;;;4995023;28;20462;-80
2020/12/07 17:50:52;;;;;;;5.30;4.40;;;7.20;99.90;;;;;;4988068;28;20471;-79
2020/12/07 17:53:49;;;;;;;4.87;4.43;;;7.50;99.90;;;;;;5008355;28;20585;-78
2020/12/07 17:56:42;;;;;;;5.17;4.67;;;7.40;99.90;;;;;;5009910;28;20459;-79
2020/12/07 18:00:09;;;;;;;;;;;;;;;;;;;;;
2020/12/07 18:03:12;;;;;;;8.10;6.40;;;7.20;99.90;;;;;;4989605;28;20470;-80
2020/12/07 18:06:16;;;;;;;;;;;;;;;;;;;;;